sensor_id;sensor_type;location;lat;lon;timestamp;P1;durP1;ratioP1;P2;durP2;ratioP2
6947;SDS011;3513;47.664;9.162;2024-03-29T00:00:39;4.87;;;1.83;;
6947;SDS011;3513;47.664;9.162;2024-03-29T00:03:05;4.07;;;2.40;;
6947;SDS011;3513;47.664;9.162;2024-03-29T00:05:31;3.83;;;2.07;;
6947;SDS011;3513;47.664;9.162;2024-03-29T00:08:00;5.33;;;2.53;;
6947;SDS011;3513;47.664;9.162;2024-03-29T00:10:26;3.77;;;2.40;;
6947;SDS011;3513;47.664;9.162;2024-03-29T00:12:51;2.57;;;1.70;;
6947;SDS011;3513;47.664;9.162;2024-03-29T00:15:17;4.70;;;2.13;;
6947;SDS011;3513;47.664;9.162;2024-03-29T00:17:42;2.50;;;1.77;;
6947;SDS011;3513;47.664;9.162;2024-03-29T00:20:08;2.00;;;1.77;;
6947;SDS011;3513;47.664;9.162;2024-03-29T00:22:34;2.57;;;2.07;;
6947;SDS011;3513;47.664;9.162;2024-03-29T00:25:00;2.77;;;1.83;;
6947;SDS011;3513;47.664;9.162;2024-03-29T00:27:26;2.67;;;1.70;;
6947;SDS011;3513;47.664;9.162;2024-03-29T00:29:53;2.00;;;1.43;;
6947;SDS011;3513;47.664;9.162;2024-03-29T00:32:22;2.40;;;1.50;;
6947;SDS011;3513;47.664;9.162;2024-03-29T00:34:49;6.33;;;1.67;;
6947;SDS011;3513;47.664;9.162;2024-03-29T00:37:16;2.00;;;1.40;;
6947;SDS011;3513;47.664;9.162;2024-03-29T00:39:42;2.20;;;1.37;;
6947;SDS011;3513;47.664;9.162;2024-03-29T00:42:07;2.50;;;1.10;;
6947;SDS011;3513;47.664;9.162;2024-03-29T00:44:34;3.00;;;1.27;;
6947;SDS011;3513;47.664;9.162;2024-03-29T00:47:02;1.83;;;1.13;;
6947;SDS011;3513;47.664;9.162;2024-03-29T00:49:28;1.03;;;0.93;;
6947;SDS011;3513;47.664;9.162;2024-03-29T00:51:54;2.00;;;0.93;;
6947;SDS011;3513;47.664;9.162;2024-03-29T00:54:20;1.53;;;1.10;;
6947;SDS011;3513;47.664;9.162;2024-03-29T00:56:46;2.00;;;1.10;;
6947;SDS011;3513;47.664;9.162;2024-03-29T00:59:11;1.63;;;0.90;;
6947;SDS011;3513;47.664;9.162;2024-03-29T01:01:37;4.10;;;1.10;;
6947;SDS011;3513;47.664;9.162;2024-03-29T01:04:03;2.10;;;1.00;;
6947;SDS011;3513;47.664;9.162;2024-03-29T01:06:29;1.07;;;0.80;;
6947;SDS011;3513;47.664;9.162;2024-03-29T01:08:54;0.87;;;0.70;;
6947;SDS011;3513;47.664;9.162;2024-03-29T01:11:20;1.53;;;1.10;;
6947;SDS011;3513;47.664;9.162;2024-03-29T01:13:45;3.03;;;0.83;;
6947;SDS011;3513;47.664;9.162;2024-03-29T01:16:11;1.37;;;1.27;;
6947;SDS011;3513;47.664;9.162;2024-03-29T01:18:36;2.20;;;1.20;;
6947;SDS011;3513;47.664;9.162;2024-03-29T01:21:02;1.50;;;1.30;;
6947;SDS011;3513;47.664;9.162;2024-03-29T01:23:28;1.67;;;1.00;;
6947;SDS011;3513;47.664;9.162;2024-03-29T01:25:53;1.50;;;1.00;;
6947;SDS011;3513;47.664;9.162;2024-03-29T01:28:19;1.23;;;1.07;;
6947;SDS011;3513;47.664;9.162;2024-03-29T01:30:51;1.00;;;0.80;;
6947;SDS011;3513;47.664;9.162;2024-03-29T01:33:17;1.17;;;1.03;;
6947;SDS011;3513;47.664;9.162;2024-03-29T01:35:42;6.30;;;1.27;;
6947;SDS011;3513;47.664;9.162;2024-03-29T01:38:08;1.13;;;1.00;;
6947;SDS011;3513;47.664;9.162;2024-03-29T01:40:33;2.77;;;1.03;;
6947;SDS011;3513;47.664;9.162;2024-03-29T01:43:00;2.30;;;0.90;;
6947;SDS011;3513;47.664;9.162;2024-03-29T01:45:26;0.83;;;0.73;;
6947;SDS011;3513;47.664;9.162;2024-03-29T01:47:52;1.40;;;0.80;;
6947;SDS011;3513;47.664;9.162;2024-03-29T01:50:18;2.37;;;1.00;;
6947;SDS011;3513;47.664;9.162;2024-03-29T01:52:44;0.80;;;0.77;;
6947;SDS011;3513;47.664;9.162;2024-03-29T01:55:10;0.80;;;0.67;;
6947;SDS011;3513;47.664;9.162;2024-03-29T01:57:36;1.30;;;1.00;;
6947;SDS011;3513;47.664;9.162;2024-03-29T02:00:02;1.40;;;0.70;;
6947;SDS011;3513;47.664;9.162;2024-03-29T02:02:30;1.00;;;0.90;;
6947;SDS011;3513;47.664;9.162;2024-03-29T02:04:57;2.90;;;1.10;;
6947;SDS011;3513;47.664;9.162;2024-03-29T02:07:23;1.03;;;0.93;;
6947;SDS011;3513;47.664;9.162;2024-03-29T02:09:48;1.20;;;0.97;;
6947;SDS011;3513;47.664;9.162;2024-03-29T02:12:14;1.97;;;1.03;;
6947;SDS011;3513;47.664;9.162;2024-03-29T02:14:40;1.07;;;0.97;;
6947;SDS011;3513;47.664;9.162;2024-03-29T02:17:07;4.40;;;1.07;;
6947;SDS011;3513;47.664;9.162;2024-03-29T02:19:33;3.93;;;1.23;;
6947;SDS011;3513;47.664;9.162;2024-03-29T02:21:59;1.07;;;0.80;;
6947;SDS011;3513;47.664;9.162;2024-03-29T02:24:30;1.60;;;1.03;;
6947;SDS011;3513;47.664;9.162;2024-03-29T02:26:56;0.90;;;0.80;;
6947;SDS011;3513;47.664;9.162;2024-03-29T02:29:22;1.40;;;1.30;;
6947;SDS011;3513;47.664;9.162;2024-03-29T02:31:48;1.10;;;1.00;;
6947;SDS011;3513;47.664;9.162;2024-03-29T02:34:14;1.70;;;1.20;;
6947;SDS011;3513;47.664;9.162;2024-03-29T02:36:40;1.03;;;0.90;;
6947;SDS011;3513;47.664;9.162;2024-03-29T02:39:08;1.33;;;1.23;;
6947;SDS011;3513;47.664;9.162;2024-03-29T02:41:34;1.57;;;1.10;;
6947;SDS011;3513;47.664;9.162;2024-03-29T02:44:00;1.40;;;1.10;;
6947;SDS011;3513;47.664;9.162;2024-03-29T02:46:25;1.53;;;1.43;;
6947;SDS011;3513;47.664;9.162;2024-03-29T02:48:51;1.27;;;0.93;;
6947;SDS011;3513;47.664;9.162;2024-03-29T02:51:16;1.57;;;1.20;;
6947;SDS011;3513;47.664;9.162;2024-03-29T02:53:42;1.60;;;1.20;;
6947;SDS011;3513;47.664;9.162;2024-03-29T02:56:07;8.77;;;1.43;;
6947;SDS011;3513;47.664;9.162;2024-03-29T02:58:34;8.73;;;1.10;;
6947;SDS011;3513;47.664;9.162;2024-03-29T03:01:06;1.50;;;1.13;;
6947;SDS011;3513;47.664;9.162;2024-03-29T03:03:33;1.50;;;1.20;;
6947;SDS011;3513;47.664;9.162;2024-03-29T03:05:58;1.63;;;1.30;;
6947;SDS011;3513;47.664;9.162;2024-03-29T03:08:24;2.03;;;1.10;;
6947;SDS011;3513;47.664;9.162;2024-03-29T03:11:08;2.40;;;1.53;;
6947;SDS011;3513;47.664;9.162;2024-03-29T03:13:33;7.03;;;1.60;;
6947;SDS011;3513;47.664;9.162;2024-03-29T03:15:59;2.73;;;1.47;;
6947;SDS011;3513;47.664;9.162;2024-03-29T03:18:25;2.30;;;1.40;;
6947;SDS011;3513;47.664;9.162;2024-03-29T03:20:51;2.40;;;1.50;;
6947;SDS011;3513;47.664;9.162;2024-03-29T03:23:19;2.33;;;1.97;;
6947;SDS011;3513;47.664;9.162;2024-03-29T03:25:58;4.23;;;1.73;;
6947;SDS011;3513;47.664;9.162;2024-03-29T03:28:25;3.40;;;2.20;;
6947;SDS011;3513;47.664;9.162;2024-03-29T03:30:51;2.50;;;1.83;;
6947;SDS011;3513;47.664;9.162;2024-03-29T03:33:17;4.00;;;1.70;;
6947;SDS011;3513;47.664;9.162;2024-03-29T03:35:43;3.30;;;1.90;;
6947;SDS011;3513;47.664;9.162;2024-03-29T03:38:09;4.87;;;2.20;;
6947;SDS011;3513;47.664;9.162;2024-03-29T03:40:35;2.33;;;2.13;;
6947;SDS011;3513;47.664;9.162;2024-03-29T03:43:02;2.57;;;2.00;;
6947;SDS011;3513;47.664;9.162;2024-03-29T03:45:28;2.37;;;1.70;;
6947;SDS011;3513;47.664;9.162;2024-03-29T03:47:54;4.40;;;1.83;;
6947;SDS011;3513;47.664;9.162;2024-03-29T03:50:19;3.70;;;1.60;;
6947;SDS011;3513;47.664;9.162;2024-03-29T03:52:45;1.83;;;1.73;;
6947;SDS011;3513;47.664;9.162;2024-03-29T03:55:11;2.30;;;1.53;;
6947;SDS011;3513;47.664;9.162;2024-03-29T03:57:36;9.37;;;2.00;;
6947;SDS011;3513;47.664;9.162;2024-03-29T04:00:03;3.73;;;1.80;;
6947;SDS011;3513;47.664;9.162;2024-03-29T04:02:29;3.47;;;1.73;;
6947;SDS011;3513;47.664;9.162;2024-03-29T04:04:54;2.90;;;1.93;;
6947;SDS011;3513;47.664;9.162;2024-03-29T04:07:20;1.93;;;1.73;;
6947;SDS011;3513;47.664;9.162;2024-03-29T04:09:45;2.20;;;1.77;;
6947;SDS011;3513;47.664;9.162;2024-03-29T04:12:11;14.40;;;2.40;;
6947;SDS011;3513;47.664;9.162;2024-03-29T04:14:36;3.93;;;1.97;;
6947;SDS011;3513;47.664;9.162;2024-03-29T04:17:02;3.07;;;2.10;;
6947;SDS011;3513;47.664;9.162;2024-03-29T04:19:28;1.90;;;1.80;;
6947;SDS011;3513;47.664;9.162;2024-03-29T04:21:53;13.57;;;2.43;;
6947;SDS011;3513;47.664;9.162;2024-03-29T04:24:19;10.60;;;2.10;;
6947;SDS011;3513;47.664;9.162;2024-03-29T04:26:45;5.23;;;2.00;;
6947;SDS011;3513;47.664;9.162;2024-03-29T04:29:12;4.50;;;2.30;;
6947;SDS011;3513;47.664;9.162;2024-03-29T04:31:39;3.20;;;2.13;;
6947;SDS011;3513;47.664;9.162;2024-03-29T04:34:05;2.60;;;2.20;;
6947;SDS011;3513;47.664;9.162;2024-03-29T04:36:30;3.60;;;2.40;;
6947;SDS011;3513;47.664;9.162;2024-03-29T04:38:56;3.53;;;2.30;;
6947;SDS011;3513;47.664;9.162;2024-03-29T04:41:22;4.27;;;2.97;;
6947;SDS011;3513;47.664;9.162;2024-03-29T04:43:47;3.70;;;2.27;;
6947;SDS011;3513;47.664;9.162;2024-03-29T04:46:13;3.37;;;2.20;;
6947;SDS011;3513;47.664;9.162;2024-03-29T04:48:39;6.50;;;3.00;;
6947;SDS011;3513;47.664;9.162;2024-03-29T04:51:06;5.80;;;2.53;;
6947;SDS011;3513;47.664;9.162;2024-03-29T04:53:32;3.27;;;2.23;;
6947;SDS011;3513;47.664;9.162;2024-03-29T04:55:58;3.17;;;1.97;;
6947;SDS011;3513;47.664;9.162;2024-03-29T04:58:24;8.43;;;2.77;;
6947;SDS011;3513;47.664;9.162;2024-03-29T05:00:50;5.20;;;2.70;;
6947;SDS011;3513;47.664;9.162;2024-03-29T05:03:19;4.17;;;3.33;;
6947;SDS011;3513;47.664;9.162;2024-03-29T05:05:46;3.10;;;2.30;;
6947;SDS011;3513;47.664;9.162;2024-03-29T05:08:12;4.40;;;2.67;;
6947;SDS011;3513;47.664;9.162;2024-03-29T05:10:41;3.13;;;1.97;;
6947;SDS011;3513;47.664;9.162;2024-03-29T05:13:08;3.03;;;2.23;;
6947;SDS011;3513;47.664;9.162;2024-03-29T05:15:33;3.17;;;1.83;;
6947;SDS011;3513;47.664;9.162;2024-03-29T05:17:59;2.37;;;1.93;;
6947;SDS011;3513;47.664;9.162;2024-03-29T05:20:24;3.43;;;2.40;;
6947;SDS011;3513;47.664;9.162;2024-03-29T05:22:50;3.03;;;2.10;;
6947;SDS011;3513;47.664;9.162;2024-03-29T05:25:15;3.63;;;2.23;;
6947;SDS011;3513;47.664;9.162;2024-03-29T05:27:41;3.90;;;2.77;;
6947;SDS011;3513;47.664;9.162;2024-03-29T05:30:07;5.67;;;2.23;;
6947;SDS011;3513;47.664;9.162;2024-03-29T05:32:34;6.40;;;1.90;;
6947;SDS011;3513;47.664;9.162;2024-03-29T05:35:00;2.03;;;1.73;;
6947;SDS011;3513;47.664;9.162;2024-03-29T05:37:26;4.10;;;2.50;;
6947;SDS011;3513;47.664;9.162;2024-03-29T05:39:52;4.87;;;2.67;;
6947;SDS011;3513;47.664;9.162;2024-03-29T05:42:27;3.33;;;2.33;;
6947;SDS011;3513;47.664;9.162;2024-03-29T05:44:55;2.70;;;1.90;;
6947;SDS011;3513;47.664;9.162;2024-03-29T05:47:20;5.10;;;3.10;;
6947;SDS011;3513;47.664;9.162;2024-03-29T05:49:47;4.00;;;2.47;;
6947;SDS011;3513;47.664;9.162;2024-03-29T05:52:13;7.07;;;2.23;;
6947;SDS011;3513;47.664;9.162;2024-03-29T05:54:42;3.57;;;2.50;;
6947;SDS011;3513;47.664;9.162;2024-03-29T05:57:08;4.20;;;1.90;;
6947;SDS011;3513;47.664;9.162;2024-03-29T05:59:34;9.63;;;3.10;;
6947;SDS011;3513;47.664;9.162;2024-03-29T06:02:00;3.60;;;2.50;;
6947;SDS011;3513;47.664;9.162;2024-03-29T06:04:27;6.87;;;2.50;;
6947;SDS011;3513;47.664;9.162;2024-03-29T06:06:57;7.20;;;2.60;;
6947;SDS011;3513;47.664;9.162;2024-03-29T06:09:26;7.00;;;1.87;;
6947;SDS011;3513;47.664;9.162;2024-03-29T06:11:56;7.87;;;2.90;;
6947;SDS011;3513;47.664;9.162;2024-03-29T06:14:25;13.43;;;2.30;;
6947;SDS011;3513;47.664;9.162;2024-03-29T06:17:09;4.87;;;2.70;;
6947;SDS011;3513;47.664;9.162;2024-03-29T06:19:48;3.50;;;2.00;;
6947;SDS011;3513;47.664;9.162;2024-03-29T06:22:20;3.00;;;2.17;;
6947;SDS011;3513;47.664;9.162;2024-03-29T06:24:45;4.70;;;2.80;;
6947;SDS011;3513;47.664;9.162;2024-03-29T06:27:12;5.40;;;3.03;;
6947;SDS011;3513;47.664;9.162;2024-03-29T06:29:42;4.30;;;2.60;;
6947;SDS011;3513;47.664;9.162;2024-03-29T06:32:08;4.60;;;2.40;;
6947;SDS011;3513;47.664;9.162;2024-03-29T06:34:33;7.60;;;2.90;;
6947;SDS011;3513;47.664;9.162;2024-03-29T06:36:59;4.37;;;2.43;;
6947;SDS011;3513;47.664;9.162;2024-03-29T06:39:24;3.87;;;2.20;;
6947;SDS011;3513;47.664;9.162;2024-03-29T06:41:51;5.50;;;2.90;;
6947;SDS011;3513;47.664;9.162;2024-03-29T06:44:17;3.00;;;2.23;;
6947;SDS011;3513;47.664;9.162;2024-03-29T06:46:42;3.93;;;2.60;;
6947;SDS011;3513;47.664;9.162;2024-03-29T06:49:08;4.17;;;2.73;;
6947;SDS011;3513;47.664;9.162;2024-03-29T06:51:34;6.90;;;2.90;;
6947;SDS011;3513;47.664;9.162;2024-03-29T06:53:59;6.23;;;2.87;;
6947;SDS011;3513;47.664;9.162;2024-03-29T06:56:25;2.70;;;1.90;;
6947;SDS011;3513;47.664;9.162;2024-03-29T06:58:50;8.10;;;2.77;;
6947;SDS011;3513;47.664;9.162;2024-03-29T07:01:16;3.93;;;2.20;;
6947;SDS011;3513;47.664;9.162;2024-03-29T07:03:41;4.10;;;2.37;;
6947;SDS011;3513;47.664;9.162;2024-03-29T07:06:07;3.00;;;2.00;;
6947;SDS011;3513;47.664;9.162;2024-03-29T07:08:33;3.20;;;2.00;;
6947;SDS011;3513;47.664;9.162;2024-03-29T07:10:59;3.73;;;1.90;;
6947;SDS011;3513;47.664;9.162;2024-03-29T07:13:27;3.67;;;1.67;;
6947;SDS011;3513;47.664;9.162;2024-03-29T07:15:53;4.67;;;2.20;;
6947;SDS011;3513;47.664;9.162;2024-03-29T07:18:19;5.03;;;2.00;;
6947;SDS011;3513;47.664;9.162;2024-03-29T07:20:44;7.90;;;2.30;;
6947;SDS011;3513;47.664;9.162;2024-03-29T07:23:10;3.30;;;2.00;;
6947;SDS011;3513;47.664;9.162;2024-03-29T07:28:04;3.77;;;2.23;;
6947;SDS011;3513;47.664;9.162;2024-03-29T07:30:30;6.50;;;2.63;;
6947;SDS011;3513;47.664;9.162;2024-03-29T07:32:55;3.73;;;2.20;;
6947;SDS011;3513;47.664;9.162;2024-03-29T07:35:21;2.20;;;1.13;;
6947;SDS011;3513;47.664;9.162;2024-03-29T07:37:46;4.87;;;2.10;;
6947;SDS011;3513;47.664;9.162;2024-03-29T07:40:14;5.80;;;2.47;;
6947;SDS011;3513;47.664;9.162;2024-03-29T07:42:40;5.50;;;2.43;;
6947;SDS011;3513;47.664;9.162;2024-03-29T07:45:06;2.93;;;1.33;;
6947;SDS011;3513;47.664;9.162;2024-03-29T07:47:32;3.90;;;1.80;;
6947;SDS011;3513;47.664;9.162;2024-03-29T07:49:57;2.43;;;1.77;;
6947;SDS011;3513;47.664;9.162;2024-03-29T07:52:23;7.60;;;2.00;;
6947;SDS011;3513;47.664;9.162;2024-03-29T07:54:49;3.27;;;1.60;;
6947;SDS011;3513;47.664;9.162;2024-03-29T07:57:14;4.00;;;1.97;;
6947;SDS011;3513;47.664;9.162;2024-03-29T07:59:42;6.33;;;1.97;;
6947;SDS011;3513;47.664;9.162;2024-03-29T08:02:07;8.03;;;1.97;;
6947;SDS011;3513;47.664;9.162;2024-03-29T08:04:33;2.83;;;1.40;;
6947;SDS011;3513;47.664;9.162;2024-03-29T08:06:59;3.40;;;1.70;;
6947;SDS011;3513;47.664;9.162;2024-03-29T08:09:25;2.80;;;1.30;;
6947;SDS011;3513;47.664;9.162;2024-03-29T08:11:51;3.80;;;1.40;;
6947;SDS011;3513;47.664;9.162;2024-03-29T08:14:16;3.17;;;1.60;;
6947;SDS011;3513;47.664;9.162;2024-03-29T08:16:42;2.83;;;1.67;;
6947;SDS011;3513;47.664;9.162;2024-03-29T08:19:08;3.73;;;1.47;;
6947;SDS011;3513;47.664;9.162;2024-03-29T08:21:34;2.17;;;1.63;;
6947;SDS011;3513;47.664;9.162;2024-03-29T08:23:59;2.60;;;1.33;;
6947;SDS011;3513;47.664;9.162;2024-03-29T08:26:26;2.13;;;1.33;;
6947;SDS011;3513;47.664;9.162;2024-03-29T08:28:53;3.53;;;1.70;;
6947;SDS011;3513;47.664;9.162;2024-03-29T08:31:19;2.73;;;1.97;;
6947;SDS011;3513;47.664;9.162;2024-03-29T08:33:45;4.00;;;1.40;;
6947;SDS011;3513;47.664;9.162;2024-03-29T08:36:10;1.97;;;1.77;;
6947;SDS011;3513;47.664;9.162;2024-03-29T08:38:37;2.77;;;0.97;;
6947;SDS011;3513;47.664;9.162;2024-03-29T08:41:06;4.37;;;1.07;;
6947;SDS011;3513;47.664;9.162;2024-03-29T08:43:31;2.50;;;1.07;;
6947;SDS011;3513;47.664;9.162;2024-03-29T08:45:57;5.30;;;1.60;;
6947;SDS011;3513;47.664;9.162;2024-03-29T08:48:23;3.27;;;1.33;;
6947;SDS011;3513;47.664;9.162;2024-03-29T08:50:50;6.33;;;3.17;;
6947;SDS011;3513;47.664;9.162;2024-03-29T08:53:15;2.90;;;1.47;;
6947;SDS011;3513;47.664;9.162;2024-03-29T08:55:41;5.20;;;1.63;;
6947;SDS011;3513;47.664;9.162;2024-03-29T08:58:07;2.60;;;1.50;;
6947;SDS011;3513;47.664;9.162;2024-03-29T09:00:32;2.30;;;1.47;;
6947;SDS011;3513;47.664;9.162;2024-03-29T09:02:58;11.00;;;1.80;;
6947;SDS011;3513;47.664;9.162;2024-03-29T09:05:24;2.83;;;1.70;;
6947;SDS011;3513;47.664;9.162;2024-03-29T09:07:52;3.77;;;2.07;;
6947;SDS011;3513;47.664;9.162;2024-03-29T09:10:18;2.10;;;1.60;;
6947;SDS011;3513;47.664;9.162;2024-03-29T09:12:44;3.60;;;1.80;;
6947;SDS011;3513;47.664;9.162;2024-03-29T09:15:09;2.43;;;1.70;;
6947;SDS011;3513;47.664;9.162;2024-03-29T09:17:44;3.50;;;1.50;;
6947;SDS011;3513;47.664;9.162;2024-03-29T09:20:10;4.50;;;1.10;;
6947;SDS011;3513;47.664;9.162;2024-03-29T09:22:36;4.70;;;1.50;;
6947;SDS011;3513;47.664;9.162;2024-03-29T09:25:03;2.37;;;1.27;;
6947;SDS011;3513;47.664;9.162;2024-03-29T09:27:29;1.50;;;1.00;;
6947;SDS011;3513;47.664;9.162;2024-03-29T09:29:58;1.90;;;1.23;;
6947;SDS011;3513;47.664;9.162;2024-03-29T09:32:24;1.53;;;1.27;;
6947;SDS011;3513;47.664;9.162;2024-03-29T09:34:49;2.30;;;1.30;;
6947;SDS011;3513;47.664;9.162;2024-03-29T09:37:15;3.13;;;1.37;;
6947;SDS011;3513;47.664;9.162;2024-03-29T09:39:40;1.60;;;1.20;;
6947;SDS011;3513;47.664;9.162;2024-03-29T09:42:06;1.77;;;1.10;;
6947;SDS011;3513;47.664;9.162;2024-03-29T09:44:34;1.30;;;0.97;;
6947;SDS011;3513;47.664;9.162;2024-03-29T09:47:02;4.10;;;1.10;;
6947;SDS011;3513;47.664;9.162;2024-03-29T09:49:29;4.03;;;1.17;;
6947;SDS011;3513;47.664;9.162;2024-03-29T09:51:56;2.43;;;1.20;;
6947;SDS011;3513;47.664;9.162;2024-03-29T09:54:24;1.77;;;0.97;;
6947;SDS011;3513;47.664;9.162;2024-03-29T09:56:51;4.93;;;1.37;;
6947;SDS011;3513;47.664;9.162;2024-03-29T09:59:18;1.23;;;1.13;;
6947;SDS011;3513;47.664;9.162;2024-03-29T10:01:43;2.30;;;1.03;;
6947;SDS011;3513;47.664;9.162;2024-03-29T10:04:09;30.33;;;2.30;;
6947;SDS011;3513;47.664;9.162;2024-03-29T10:06:37;2.30;;;1.17;;
6947;SDS011;3513;47.664;9.162;2024-03-29T10:09:04;4.53;;;1.10;;
6947;SDS011;3513;47.664;9.162;2024-03-29T10:11:30;2.63;;;0.90;;
6947;SDS011;3513;47.664;9.162;2024-03-29T10:13:56;1.23;;;0.97;;
6947;SDS011;3513;47.664;9.162;2024-03-29T10:16:21;1.37;;;0.90;;
6947;SDS011;3513;47.664;9.162;2024-03-29T10:18:49;1.10;;;0.80;;
6947;SDS011;3513;47.664;9.162;2024-03-29T10:21:15;1.53;;;1.00;;
6947;SDS011;3513;47.664;9.162;2024-03-29T10:23:41;3.37;;;1.53;;
6947;SDS011;3513;47.664;9.162;2024-03-29T10:26:08;3.17;;;1.13;;
6947;SDS011;3513;47.664;9.162;2024-03-29T10:28:34;2.80;;;1.77;;
6947;SDS011;3513;47.664;9.162;2024-03-29T10:31:02;1.47;;;1.17;;
6947;SDS011;3513;47.664;9.162;2024-03-29T10:33:29;7.10;;;1.20;;
6947;SDS011;3513;47.664;9.162;2024-03-29T10:35:59;5.50;;;0.90;;
6947;SDS011;3513;47.664;9.162;2024-03-29T10:38:25;1.30;;;1.10;;
6947;SDS011;3513;47.664;9.162;2024-03-29T10:40:51;2.10;;;0.87;;
6947;SDS011;3513;47.664;9.162;2024-03-29T10:43:18;2.80;;;1.20;;
6947;SDS011;3513;47.664;9.162;2024-03-29T10:45:48;1.53;;;1.00;;
6947;SDS011;3513;47.664;9.162;2024-03-29T10:48:15;7.90;;;1.43;;
6947;SDS011;3513;47.664;9.162;2024-03-29T10:50:42;1.23;;;0.87;;
6947;SDS011;3513;47.664;9.162;2024-03-29T10:53:09;1.20;;;0.90;;
6947;SDS011;3513;47.664;9.162;2024-03-29T10:55:37;4.70;;;1.30;;
6947;SDS011;3513;47.664;9.162;2024-03-29T10:58:04;13.03;;;1.47;;
6947;SDS011;3513;47.664;9.162;2024-03-29T11:00:37;2.40;;;1.23;;
6947;SDS011;3513;47.664;9.162;2024-03-29T11:03:16;1.67;;;1.07;;
6947;SDS011;3513;47.664;9.162;2024-03-29T11:05:49;1.53;;;0.83;;
6947;SDS011;3513;47.664;9.162;2024-03-29T11:08:21;3.07;;;1.33;;
6947;SDS011;3513;47.664;9.162;2024-03-29T11:10:49;1.17;;;0.90;;
6947;SDS011;3513;47.664;9.162;2024-03-29T11:16:00;2.13;;;1.83;;
6947;SDS011;3513;47.664;9.162;2024-03-29T11:18:25;3.93;;;1.07;;
6947;SDS011;3513;47.664;9.162;2024-03-29T11:20:53;4.70;;;1.47;;
6947;SDS011;3513;47.664;9.162;2024-03-29T11:23:21;4.20;;;2.53;;
6947;SDS011;3513;47.664;9.162;2024-03-29T11:25:51;5.67;;;4.97;;
6947;SDS011;3513;47.664;9.162;2024-03-29T11:28:26;3.20;;;2.87;;
6947;SDS011;3513;47.664;9.162;2024-03-29T11:30:56;3.57;;;2.53;;
6947;SDS011;3513;47.664;9.162;2024-03-29T11:38:39;3.23;;;1.37;;
6947;SDS011;3513;47.664;9.162;2024-03-29T11:43:32;2.50;;;1.57;;
6947;SDS011;3513;47.664;9.162;2024-03-29T11:46:00;0.97;;;0.87;;
6947;SDS011;3513;47.664;9.162;2024-03-29T11:48:27;1.67;;;1.10;;
6947;SDS011;3513;47.664;9.162;2024-03-29T11:50:53;2.30;;;1.57;;
6947;SDS011;3513;47.664;9.162;2024-03-29T11:53:19;1.13;;;1.03;;
6947;SDS011;3513;47.664;9.162;2024-03-29T11:55:45;1.10;;;1.00;;
6947;SDS011;3513;47.664;9.162;2024-03-29T11:58:12;1.30;;;0.83;;
6947;SDS011;3513;47.664;9.162;2024-03-29T12:00:38;9.40;;;1.10;;
6947;SDS011;3513;47.664;9.162;2024-03-29T12:03:05;4.40;;;1.73;;
6947;SDS011;3513;47.664;9.162;2024-03-29T12:05:31;4.73;;;1.20;;
6947;SDS011;3513;47.664;9.162;2024-03-29T12:07:58;1.40;;;1.03;;
6947;SDS011;3513;47.664;9.162;2024-03-29T12:10:27;3.10;;;1.40;;
6947;SDS011;3513;47.664;9.162;2024-03-29T12:12:57;2.10;;;1.53;;
6947;SDS011;3513;47.664;9.162;2024-03-29T12:15:23;2.43;;;1.20;;
6947;SDS011;3513;47.664;9.162;2024-03-29T12:20:47;1.63;;;1.10;;
6947;SDS011;3513;47.664;9.162;2024-03-29T12:23:15;1.67;;;1.13;;
6947;SDS011;3513;47.664;9.162;2024-03-29T12:25:45;2.23;;;0.90;;
6947;SDS011;3513;47.664;9.162;2024-03-29T12:28:12;2.47;;;0.90;;
6947;SDS011;3513;47.664;9.162;2024-03-29T12:30:46;0.80;;;0.77;;
6947;SDS011;3513;47.664;9.162;2024-03-29T12:35:40;6.23;;;1.67;;
6947;SDS011;3513;47.664;9.162;2024-03-29T12:38:12;1.20;;;0.83;;
6947;SDS011;3513;47.664;9.162;2024-03-29T12:40:40;2.43;;;0.90;;
6947;SDS011;3513;47.664;9.162;2024-03-29T12:43:10;3.27;;;1.30;;
6947;SDS011;3513;47.664;9.162;2024-03-29T12:45:40;2.17;;;0.97;;
6947;SDS011;3513;47.664;9.162;2024-03-29T12:48:14;1.20;;;0.93;;
6947;SDS011;3513;47.664;9.162;2024-03-29T12:50:45;1.50;;;1.00;;
6947;SDS011;3513;47.664;9.162;2024-03-29T12:53:12;0.93;;;0.70;;
6947;SDS011;3513;47.664;9.162;2024-03-29T12:55:48;3.53;;;1.00;;
6947;SDS011;3513;47.664;9.162;2024-03-29T12:58:16;0.87;;;0.60;;
6947;SDS011;3513;47.664;9.162;2024-03-29T13:00:45;0.90;;;0.60;;
6947;SDS011;3513;47.664;9.162;2024-03-29T13:03:11;1.27;;;0.80;;
6947;SDS011;3513;47.664;9.162;2024-03-29T13:05:37;3.20;;;0.83;;
6947;SDS011;3513;47.664;9.162;2024-03-29T13:08:07;1.17;;;0.70;;
6947;SDS011;3513;47.664;9.162;2024-03-29T13:10:35;2.20;;;0.80;;
6947;SDS011;3513;47.664;9.162;2024-03-29T13:13:04;1.43;;;0.90;;
6947;SDS011;3513;47.664;9.162;2024-03-29T13:15:32;1.07;;;0.60;;
6947;SDS011;3513;47.664;9.162;2024-03-29T13:18:02;1.00;;;0.70;;
6947;SDS011;3513;47.664;9.162;2024-03-29T13:20:29;1.80;;;0.80;;
6947;SDS011;3513;47.664;9.162;2024-03-29T13:22:55;1.20;;;0.90;;
6947;SDS011;3513;47.664;9.162;2024-03-29T13:25:23;0.90;;;0.70;;
6947;SDS011;3513;47.664;9.162;2024-03-29T13:27:49;1.80;;;0.77;;
6947;SDS011;3513;47.664;9.162;2024-03-29T13:30:20;1.73;;;0.90;;
6947;SDS011;3513;47.664;9.162;2024-03-29T13:32:50;1.00;;;0.90;;
6947;SDS011;3513;47.664;9.162;2024-03-29T13:35:16;0.90;;;0.70;;
6947;SDS011;3513;47.664;9.162;2024-03-29T13:37:45;5.50;;;1.23;;
6947;SDS011;3513;47.664;9.162;2024-03-29T13:40:13;2.00;;;1.00;;
6947;SDS011;3513;47.664;9.162;2024-03-29T13:42:40;0.97;;;0.87;;
6947;SDS011;3513;47.664;9.162;2024-03-29T13:45:07;1.73;;;1.00;;
6947;SDS011;3513;47.664;9.162;2024-03-29T13:47:38;1.70;;;0.87;;
6947;SDS011;3513;47.664;9.162;2024-03-29T13:50:05;2.80;;;0.83;;
6947;SDS011;3513;47.664;9.162;2024-03-29T13:52:32;0.70;;;0.60;;
6947;SDS011;3513;47.664;9.162;2024-03-29T13:54:58;1.03;;;0.93;;
6947;SDS011;3513;47.664;9.162;2024-03-29T13:57:24;0.80;;;0.80;;
6947;SDS011;3513;47.664;9.162;2024-03-29T13:59:50;2.23;;;0.97;;
6947;SDS011;3513;47.664;9.162;2024-03-29T14:02:16;1.77;;;0.80;;
6947;SDS011;3513;47.664;9.162;2024-03-29T14:04:44;2.10;;;0.80;;
6947;SDS011;3513;47.664;9.162;2024-03-29T14:07:10;1.57;;;0.97;;
6947;SDS011;3513;47.664;9.162;2024-03-29T14:09:38;1.67;;;0.70;;
6947;SDS011;3513;47.664;9.162;2024-03-29T14:12:07;2.37;;;1.20;;
6947;SDS011;3513;47.664;9.162;2024-03-29T14:14:34;2.77;;;1.43;;
6947;SDS011;3513;47.664;9.162;2024-03-29T14:17:00;2.23;;;0.80;;
6947;SDS011;3513;47.664;9.162;2024-03-29T14:19:33;1.67;;;0.97;;
6947;SDS011;3513;47.664;9.162;2024-03-29T14:22:09;3.83;;;0.90;;
6947;SDS011;3513;47.664;9.162;2024-03-29T14:24:37;3.30;;;0.90;;
6947;SDS011;3513;47.664;9.162;2024-03-29T14:27:04;0.80;;;0.70;;
6947;SDS011;3513;47.664;9.162;2024-03-29T14:29:34;1.40;;;0.93;;
6947;SDS011;3513;47.664;9.162;2024-03-29T14:32:00;1.70;;;1.00;;
6947;SDS011;3513;47.664;9.162;2024-03-29T14:34:27;0.80;;;0.70;;
6947;SDS011;3513;47.664;9.162;2024-03-29T14:36:54;6.77;;;1.60;;
6947;SDS011;3513;47.664;9.162;2024-03-29T14:39:20;2.80;;;0.70;;
6947;SDS011;3513;47.664;9.162;2024-03-29T14:41:46;1.60;;;0.80;;
6947;SDS011;3513;47.664;9.162;2024-03-29T14:44:16;6.43;;;0.77;;
6947;SDS011;3513;47.664;9.162;2024-03-29T14:46:43;1.93;;;0.90;;
6947;SDS011;3513;47.664;9.162;2024-03-29T14:49:09;0.90;;;0.80;;
6947;SDS011;3513;47.664;9.162;2024-03-29T14:51:36;1.30;;;0.97;;
6947;SDS011;3513;47.664;9.162;2024-03-29T14:54:02;4.77;;;1.50;;
6947;SDS011;3513;47.664;9.162;2024-03-29T14:56:29;2.80;;;1.20;;
6947;SDS011;3513;47.664;9.162;2024-03-29T14:59:02;1.80;;;1.27;;
6947;SDS011;3513;47.664;9.162;2024-03-29T15:01:30;1.20;;;0.90;;
6947;SDS011;3513;47.664;9.162;2024-03-29T15:03:56;1.57;;;1.00;;
6947;SDS011;3513;47.664;9.162;2024-03-29T15:06:22;1.87;;;0.93;;
6947;SDS011;3513;47.664;9.162;2024-03-29T15:08:49;1.60;;;1.07;;
6947;SDS011;3513;47.664;9.162;2024-03-29T15:11:15;5.17;;;1.37;;
6947;SDS011;3513;47.664;9.162;2024-03-29T15:13:41;2.40;;;0.97;;
6947;SDS011;3513;47.664;9.162;2024-03-29T15:16:06;4.80;;;1.40;;
6947;SDS011;3513;47.664;9.162;2024-03-29T15:18:32;1.07;;;0.97;;
6947;SDS011;3513;47.664;9.162;2024-03-29T15:21:00;2.77;;;1.40;;
6947;SDS011;3513;47.664;9.162;2024-03-29T15:23:27;1.20;;;1.10;;
6947;SDS011;3513;47.664;9.162;2024-03-29T15:25:54;3.63;;;1.93;;
6947;SDS011;3513;47.664;9.162;2024-03-29T15:28:21;6.40;;;4.17;;
6947;SDS011;3513;47.664;9.162;2024-03-29T15:31:16;4.80;;;2.80;;